Bennettsville, SC (29512)

6:19 AM EDT on August 30, 2014 (GMT -0400)
Cottingham Creek | Change Station
CLOSE
Current Station
Personal Weather Station
Location: Bennettsville, SC
Elevation: 143 ft
Nearby Weather Stations

Elev 143 ft 34.60 °N, 79.63 °W | Updated 1 minute ago

Overcast
Overcast
70.7 °F
Feels Like 70.7 °F
N
0.0
Wind Variable Wind from SSE
Gusts 0.0 mph

Today
High -- | Low -- °F
--% Chance of Precip.
Yesterday
High -- | Low -- °F
Precip. -- in
6:50 AM 7:47 PM
Waxing Crescent, 21% visible
Pressure 30.18 in
Visibility 7.0 miles
Clouds Overcast 800 ft
Dew Point 68 °F
Humidity 91%
Rainfall 0.00 in
Snow Depth Not available.
UV 0 out of 12
Pollen 8.20 out of 12
Ozone Good
PM2.5 Moderate
Flu Activity Not available.
METAR KBBP 301015Z AUTO 02003KT 7SM OVC008 22/22 A3018 RMK AO2

More Conditions Fewer Conditions

Pressure 30.18 in
Visibility 7.0 miles
Clouds Overcast 800 ft
Dew Point 68 °F
Humidity 91%
Rainfall 0.00 in
Snow Depth Not available.
UV 0 out of 12
Pollen 8.20 out of 12
Ozone Good
PM2.5 Moderate
Flu Activity Not available.
METAR KBBP 301015Z AUTO 02003KT 7SM OVC008 22/22 A3018 RMK AO2

More Conditions Fewer Conditions

10-Day Weather Forecast

Almanac

Astronomy

Aug. 30, 2014 Rise Set
Actual Time 6:50 AM EDT 7:47 PM EDT
Civil Twilight 6:24 AM EDT 8:13 PM EDT
Nautical Twilight 5:53 AM EDT 8:44 PM EDT
Astronomical Twilight 5:22 AM EDT 9:15 PM EDT
Moon 11:23 AM EDT 10:34 PM EDT
Length of Visible Light 13h 48m
Length of Day
12h 57m
Tomorrow will be 2m 3s shorter.
Waxing Crescent, 21% of the Moon is Illuminated
Today
Waxing Crescent
Sep 2
First Quarter
Sep 8
Full
Sep 15
Last Quarter
Sep 24
New

Today's Extremes

State Highs State Lows

Community

WunderPhotos

Upload Photos

1,748,481 photos uploaded!

Nearby

Air Quality

  Air Quality AQ Index Pollutant
Yesterday Moderate
PM2.5
Yesterday Good
OZONE
Current Moderate
PM2.5
Current Good
OZONE
Saturday Good
OZONE

Snow Depth

Station Depth Elevation
No new snow has been reported.

Earthquake Activity

City Distance Mag. Time & Date
No recent earthquake activity has been reported nearby.
Minimum magnitude displayed is 2.5.

Coastal Water Temperatures

Place Temperature
No Stations Reporting

Nearby Weather Stations